Weather reports worldwide

Advertisment
Stornoway Airport, United Kingdom (2003026): temperature & dewpoint: 20.03.2019 07:00:00 - 26.03.2019 07:00:00 (GMT)Stornoway Airport, United Kingdom (2003026): wind speed: 20.03.2019 07:00:00 - 26.03.2019 07:00:00 (GMT)Stornoway Airport, United Kingdom (2003026): wind direction: 20.03.2019 07:00:00 - 26.03.2019 07:00:00 (GMT)Stornoway Airport, United Kingdom (2003026): visibility: 20.03.2019 07:00:00 - 26.03.2019 07:00:00 (GMT)
Date & Time tt [°C] td [°C] ff [km/h] ff [kn] dd vv [km]
26.03.2019 07:00:00 - - - - - -
26.03.2019 06:00:00 8,0 5,0 15 8 SW 10
26.03.2019 05:00:00 7,0 5,0 21 11 SSW 10
26.03.2019 04:00:00 7,0 5,0 15 8 SW 10
26.03.2019 03:00:00 6,0 4,0 18 10 SW 10
26.03.2019 02:00:00 6,0 5,0 16 9 SW 10
26.03.2019 01:00:00 7,0 5,0 22 12 SW 10
26.03.2019 00:00:00 7,0 5,0 11 6 WSW 10
25.03.2019 23:00:00 7,0 5,0 16 9 SSW 10
25.03.2019 22:00:00 7,0 5,0 18 10 WSW 10
25.03.2019 21:00:00 7,0 5,0 15 8 SW 10
25.03.2019 20:00:00 7,0 5,0 18 10 WSW 10
25.03.2019 19:00:00 8,0 5,0 13 7 WSW 10
25.03.2019 18:00:00 8,0 5,0 13 7 SW 10
25.03.2019 17:00:00 9,0 5,0 16 9 W 10
25.03.2019 16:00:00 9,0 7,0 15 8 WSW 10
25.03.2019 15:00:00 9,0 5,0 22 12 W 10
25.03.2019 14:00:00 9,0 5,0 21 11 WSW 10
25.03.2019 13:00:00 9,0 4,0 16 9 WSW 10
25.03.2019 12:00:00 9,0 4,0 18 10 W 10
25.03.2019 11:00:00 8,0 3,0 21 11 W 10
25.03.2019 10:00:00 8,0 3,0 11 6 WNW 10
25.03.2019 09:00:00 7,0 4,0 8 4 SW 10
25.03.2019 08:00:00 5,0 3,0 11 6 W 10
25.03.2019 07:00:00 4,0 2,0 9 5 W 10
25.03.2019 06:00:00 4,0 2,0 11 6 NW 10
25.03.2019 05:00:00 4,0 1,0 9 5 NW 10
25.03.2019 04:00:00 4,0 1,0 15 8 WNW 10
25.03.2019 03:00:00 4,0 2,0 15 8 WNW 10
25.03.2019 02:00:00 5,0 1,0 16 9 WNW 10
25.03.2019 01:00:00 5,0 1,0 22 12 WNW 10
25.03.2019 00:00:00 6,0 1,0 24 13 NW 10
24.03.2019 23:00:00 6,0 3,0 26 14 NW 10
24.03.2019 22:00:00 6,0 3,0 24 13 NW 10
24.03.2019 21:00:00 6,0 3,0 28 15 NW 10
24.03.2019 20:00:00 6,0 3,0 37 20 NW 10
24.03.2019 19:00:00 7,0 2,0 39 21 WNW 10
24.03.2019 18:00:00 7,0 1,0 37 20 WNW 10
24.03.2019 17:00:00 7,0 2,0 42 23 WNW 10
24.03.2019 16:00:00 8,0 2,0 41 22 WNW 10
24.03.2019 15:00:00 7,0 2,0 48 26 WNW 10
24.03.2019 14:00:00 5,0 2,0 46 25 WNW 10
24.03.2019 13:00:00 6,0 3,0 37 20 WNW 10
24.03.2019 12:00:00 8,0 3,0 42 23 WNW 10
24.03.2019 11:00:00 4,0 2,0 35 19 WNW 3,3
24.03.2019 10:00:00 6,0 3,0 29 16 W 10
24.03.2019 09:00:00 4,0 2,0 28 15 W 10
24.03.2019 08:00:00 6,0 3,0 31 17 W 10
24.03.2019 07:00:00 5,0 3,0 37 20 W 5
24.03.2019 06:00:00 6,0 4,0 26 14 WSW 10
24.03.2019 05:00:00 4,0 3,0 26 14 WSW 10
24.03.2019 04:00:00 6,0 3,0 35 19 SW 10
24.03.2019 03:00:00 6,0 3,0 31 17 SW 10
24.03.2019 02:00:00 4,0 3,0 22 12 WSW 10
24.03.2019 01:00:00 5,0 3,0 21 11 SSW 10
24.03.2019 00:00:00 5,0 2,0 24 13 SW 10
23.03.2019 23:00:00 5,0 2,0 21 11 SW 10
23.03.2019 22:00:00 5,0 2,0 18 10 SW 10
23.03.2019 21:00:00 5,0 1,0 22 12 WSW 10
23.03.2019 20:00:00 5,0 2,0 16 9 WSW 10
23.03.2019 19:00:00 5,0 2,0 18 10 SW 10
23.03.2019 18:00:00 6,0 3,0 24 13 WSW 10
23.03.2019 17:00:00 8,0 2,0 28 15 WSW 10
23.03.2019 16:00:00 8,0 3,0 31 17 WSW 10
23.03.2019 15:00:00 8,0 4,0 31 17 WSW 10
23.03.2019 14:00:00 5,0 3,0 34 18 WSW 10
23.03.2019 13:00:00 8,0 3,0 31 17 W 10
23.03.2019 12:00:00 6,0 3,0 31 17 WSW 10
23.03.2019 11:00:00 5,0 2,0 22 12 WSW 10
23.03.2019 10:00:00 5,0 2,0 22 12 W 10
23.03.2019 09:00:00 4,0 1,0 29 16 W 10
23.03.2019 08:00:00 5,0 0,0 29 16 W 10
23.03.2019 07:00:00 4,0 0,0 28 15 W 10
23.03.2019 06:00:00 4,0 1,0 29 16 W 10
23.03.2019 05:00:00 3,0 1,0 22 12 W 10
23.03.2019 04:00:00 3,0 1,0 28 15 WSW 10
23.03.2019 03:00:00 2,0 0,0 28 15 W 10
23.03.2019 02:00:00 3,0 1,0 39 21 WSW 10
23.03.2019 01:00:00 5,0 -1,0 35 19 WSW 10
23.03.2019 00:00:00 4,0 0,0 35 19 WSW 10
22.03.2019 23:00:00 5,0 -2,0 39 21 WSW 10
22.03.2019 22:00:00 4,0 -1,0 34 18 WSW 10
22.03.2019 21:00:00 4,0 1,0 34 18 WSW 10
22.03.2019 20:00:00 4,0 1,0 41 22 WSW 10
22.03.2019 19:00:00 6,0 0,0 44 24 WSW 10
22.03.2019 18:00:00 6,0 0,0 44 24 WSW 10
22.03.2019 17:00:00 7,0 3,0 42 23 WSW 10
22.03.2019 16:00:00 6,0 3,0 37 20 WSW 10
22.03.2019 15:00:00 8,0 3,0 46 25 SW 10
22.03.2019 14:00:00 9,0 3,0 44 24 WSW 10
22.03.2019 13:00:00 10,0 3,0 42 23 SW 10
22.03.2019 12:00:00 8,0 4,0 42 23 WSW 10
22.03.2019 11:00:00 9,0 5,0 37 20 WSW 10
22.03.2019 10:00:00 9,0 5,0 35 19 SW 10
22.03.2019 09:00:00 8,0 5,0 42 23 SW 10
22.03.2019 08:00:00 10,0 8,0 61 33 SSW 8
22.03.2019 07:00:00 10,0 8,0 61 33 SSW 8
22.03.2019 06:00:00 10,0 8,0 61 33 SSW 10
22.03.2019 05:00:00 10,0 8,0 55 30 SSW 10
22.03.2019 04:00:00 10,0 8,0 54 29 S 10
22.03.2019 03:00:00 10,0 8,0 65 35 S 10
22.03.2019 02:00:00 10,0 8,0 59 32 S 10
22.03.2019 01:00:00 10,0 8,0 57 31 S 10
22.03.2019 00:00:00 10,0 9,0 44 24 SSW 10
21.03.2019 23:00:00 9,0 9,0 35 19 S 10
21.03.2019 22:00:00 9,0 9,0 35 19 S 10
21.03.2019 21:00:00 9,0 8,0 28 15 S 10
21.03.2019 20:00:00 8,0 7,0 18 10 S 6
21.03.2019 19:00:00 9,0 6,0 21 11 SSE 10
21.03.2019 18:00:00 9,0 6,0 18 10 SE 10
21.03.2019 17:00:00 9,0 6,0 15 8 S 10
21.03.2019 16:00:00 9,0 7,0 24 13 S 10
21.03.2019 15:00:00 11,0 4,0 15 8 SW 10
21.03.2019 14:00:00 11,0 4,0 22 12 W 10
21.03.2019 13:00:00 11,0 4,0 18 10 SW 10
21.03.2019 12:00:00 9,0 7,0 18 10 S 10
21.03.2019 11:00:00 9,0 7,0 22 12 S 10
21.03.2019 10:00:00 8,0 7,0 13 7 S 10
21.03.2019 09:00:00 8,0 7,0 13 7 WSW 10
21.03.2019 08:00:00 6,0 5,0 9 5 SW 10
21.03.2019 07:00:00 6,0 5,0 5 3 W 10
21.03.2019 06:00:00 7,0 6,0 11 6 WNW 10
21.03.2019 05:00:00 7,0 6,0 15 8 NW 10
21.03.2019 04:00:00 7,0 7,0 11 6 WNW 10
21.03.2019 03:00:00 8,0 7,0 15 8 W 10
21.03.2019 02:00:00 9,0 8,0 21 11 WNW 10
21.03.2019 01:00:00 10,0 9,0 28 15 WSW 10
21.03.2019 00:00:00 11,0 10,0 29 16 WSW 10
20.03.2019 23:00:00 11,0 10,0 28 15 SW 10
20.03.2019 22:00:00 11,0 10,0 34 18 SW 10
20.03.2019 21:00:00 11,0 9,0 39 21 SW 10
20.03.2019 20:00:00 11,0 9,0 39 21 SW 9
20.03.2019 19:00:00 11,0 9,0 41 22 SW 10
20.03.2019 18:00:00 11,0 9,0 42 23 SW 10
20.03.2019 17:00:00 10,0 9,0 48 26 SSW 10
20.03.2019 16:00:00 10,0 9,0 48 26 SSW 10
20.03.2019 15:00:00 10,0 9,0 50 27 SSW 9
20.03.2019 14:00:00 10,0 9,0 52 28 SSW 10
20.03.2019 13:00:00 10,0 8,0 42 23 SSW 10
20.03.2019 12:00:00 10,0 7,0 39 21 SSW 10
20.03.2019 11:00:00 10,0 7,0 26 14 S 10
20.03.2019 10:00:00 9,0 6,0 29 16 SSW 10
20.03.2019 09:00:00 8,0 5,0 22 12 S 10
20.03.2019 08:00:00 8,0 5,0 18 10 SSW 10
20.03.2019 07:00:00 7,0 3,0 15 8 SSW 10

tt = temperature
td = dewpoint
ff = wind speed
dd = wind direction
vv = visibility

Next stations